Time;durP1;ratioP1;P1;durP2;ratioP2;P2;SDS_P1;SDS_P2;PMS_P1;PMS_P2;Temp;Humidity;BMP_temperature;BMP_pressure;BME280_temperature;BME280_humidity;BME280_pressure;Samples;Min_cycle;Max_cycle;Signal;HPM_P1;HPM_P2
2022/02/14 00:01:51;;;;;;;5.85;2.63;;;;;;;12.77;38.44;99954.78;5011994;28;20058;-75
2022/02/14 00:04:17;;;;;;;6.60;2.92;;;;;;;12.76;38.76;99939.47;5010494;28;20085;-75
2022/02/14 00:06:47;;;;;;;6.88;2.92;;;;;;;12.78;38.52;99933.84;5010680;28;20112;-75
2022/02/14 00:09:14;;;;;;;4.53;2.50;;;;;;;12.76;38.52;99936.75;5010565;28;20100;-75
2022/02/14 00:11:41;;;;;;;4.82;2.60;;;;;;;12.78;38.85;99940.16;5011738;28;20131;-75
2022/02/14 00:14:07;;;;;;;4.72;2.45;;;;;;;12.77;38.73;99923.94;5010916;28;20081;-75
2022/02/14 00:16:35;;;;;;;5.97;2.88;;;;;;;12.79;38.75;99921.97;4992072;28;20077;-75
2022/02/14 00:19:02;;;;;;;6.10;3.05;;;;;;;12.79;38.76;99917.38;5019742;28;20539;-75
2022/02/14 00:21:28;;;;;;;6.45;2.92;;;;;;;12.80;38.75;99913.66;5015466;28;20070;-75
2022/02/14 00:23:55;;;;;;;5.18;2.88;;;;;;;12.81;38.73;99898.16;5011774;28;20462;-75
2022/02/14 00:26:21;;;;;;;4.97;2.38;;;;;;;12.82;38.96;99905.34;5010514;28;20045;-75
2022/02/14 00:28:48;;;;;;;4.40;2.40;;;;;;;12.82;38.76;99889.00;5017500;28;20077;-75
2022/02/14 00:31:15;;;;;;;5.78;2.72;;;;;;;12.83;38.87;99888.00;5010218;28;20078;-75
2022/02/14 00:33:41;;;;;;;6.97;3.25;;;;;;;12.83;38.74;99885.28;5009474;28;20072;-75
2022/02/14 00:36:08;;;;;;;6.32;2.63;;;;;;;12.83;38.79;99883.41;5009026;28;20058;-75
2022/02/14 00:38:35;;;;;;;4.47;2.38;;;;;;;12.82;38.79;99887.13;5011319;28;20112;-75
2022/02/14 00:41:02;;;;;;;4.00;2.30;;;;;;;12.83;38.72;99879.84;5009275;28;20080;-75
2022/02/14 00:43:29;;;;;;;4.72;2.40;;;;;;;12.83;38.81;99871.66;5010701;28;20050;-75
2022/02/14 00:45:55;;;;;;;5.03;2.40;;;;;;;12.83;38.97;99866.22;5001397;28;20060;-75
2022/02/14 00:48:24;;;;;;;4.32;2.63;;;;;;;12.84;38.97;99867.94;5011123;28;20091;-75
2022/02/14 00:50:51;;;;;;;4.97;2.50;;;;;;;12.83;38.68;99866.22;5009679;28;20054;-75
2022/02/14 00:53:19;;;;;;;4.95;2.45;;;;;;;12.83;39.11;99872.53;5009673;28;20054;-75
2022/02/14 00:55:46;;;;;;;5.32;2.30;;;;;;;12.83;38.88;99855.31;4995748;28;20116;-75
2022/02/14 00:58:14;;;;;;;4.00;2.38;;;;;;;12.84;38.88;99855.19;5011089;28;20089;-75
2022/02/14 01:00:40;;;;;;;6.03;2.47;;;;;;;12.86;38.89;99853.16;5009500;28;20053;-75
2022/02/14 01:03:07;;;;;;;6.57;2.45;;;;;;;12.87;39.12;99856.75;5010732;28;20061;-75
2022/02/14 01:05:34;;;;;;;7.00;2.70;;;;;;;12.88;39.35;99844.84;5008973;28;20078;-75
2022/02/14 01:08:00;;;;;;;4.80;2.58;;;;;;;12.89;39.05;99838.41;5009448;28;20053;-75
2022/02/14 01:10:27;;;;;;;3.90;2.50;;;;;;;12.92;38.98;99840.84;5009147;28;20077;-75
2022/02/14 01:12:53;;;;;;;4.55;2.60;;;;;;;12.91;39.13;99828.22;5009416;28;20061;-75
2022/02/14 01:15:20;;;;;;;6.00;2.55;;;;;;;12.92;39.20;99836.25;5011761;28;20131;-75
2022/02/14 01:17:47;;;;;;;6.63;3.35;;;;;;;12.93;38.87;99828.91;5010592;28;20054;-75
2022/02/14 01:20:13;;;;;;;5.22;2.17;;;;;;;12.95;39.25;99837.81;5000143;28;20086;-75
2022/02/14 01:22:41;;;;;;;4.13;2.28;;;;;;;12.96;39.18;99820.47;4990021;28;20105;-75
2022/02/14 01:25:09;;;;;;;4.43;2.35;;;;;;;12.97;39.09;99824.91;4978080;28;20082;-75
2022/02/14 01:27:37;;;;;;;4.10;2.30;;;;;;;12.97;39.00;99811.28;4989733;28;20078;-75
2022/02/14 01:30:05;;;;;;;4.95;2.58;;;;;;;12.98;39.22;99814.88;4990016;28;20086;-75
2022/02/14 01:32:32;;;;;;;4.63;2.42;;;;;;;12.95;39.04;99800.53;4990853;28;20145;-75
2022/02/14 01:34:59;;;;;;;3.88;2.20;;;;;;;12.96;39.02;99806.84;4988082;28;20066;-75
2022/02/14 01:37:25;;;;;;;4.47;2.60;;;;;;;12.98;39.24;99804.84;4990566;28;20461;-75
2022/02/14 01:39:52;;;;;;;6.05;2.38;;;;;;;12.97;39.09;99803.13;4989407;28;20082;-74
2022/02/14 01:42:19;;;;;;;4.28;2.20;;;;;;;12.99;39.37;99792.94;4990595;28;20137;-75
2022/02/14 01:44:49;;;;;;;3.90;1.98;;;;;;;13.01;39.09;99790.94;4989917;28;20054;-75
2022/02/14 01:47:19;;;;;;;4.10;2.40;;;;;;;13.00;39.20;99805.56;5005677;28;20124;-75
2022/02/14 01:49:47;;;;;;;3.92;2.13;;;;;;;13.01;39.27;99799.13;4994513;28;20137;-75
2022/02/14 01:52:15;;;;;;;5.30;2.42;;;;;;;13.02;39.21;99791.78;5010637;28;20054;-75
2022/02/14 01:54:47;;;;;;;3.80;2.08;;;;;;;13.03;39.21;99791.66;5007130;28;20133;-75
2022/02/14 01:57:16;;;;;;;3.90;2.00;;;;;;;13.01;39.14;99788.22;5009971;28;20108;-75
2022/02/14 01:59:43;;;;;;;5.32;2.35;;;;;;;13.01;39.13;99792.81;4998785;28;20058;-75
2022/02/14 02:02:11;;;;;;;4.85;2.38;;;;;;;13.03;39.27;99785.34;5011114;28;20077;-75
2022/02/14 02:04:42;;;;;;;4.63;2.10;;;;;;;13.04;39.30;99774.28;5011187;28;20115;-74
2022/02/14 02:07:08;;;;;;;6.43;3.13;;;;;;;13.02;39.25;99780.88;5012510;28;20057;-74
2022/02/14 02:09:35;;;;;;;4.53;2.40;;;;;;;13.02;39.09;99776.28;5012355;28;20073;-74
2022/02/14 02:12:23;;;;;;;4.68;2.20;;;;;;;13.02;39.29;99769.97;5000386;28;20142;-74
2022/02/14 02:14:50;;;;;;;4.60;2.17;;;;;;;13.01;39.28;99758.25;5011298;28;20657;-75
2022/02/14 02:17:17;;;;;;;5.45;2.30;;;;;;;13.03;39.07;99753.50;5013355;28;20112;-74
2022/02/14 02:19:44;;;;;;;3.80;1.90;;;;;;;13.02;39.28;99765.41;5012125;28;20396;-74
2022/02/14 02:22:10;;;;;;;4.00;2.15;;;;;;;13.01;39.05;99763.72;5013159;28;20125;-74
2022/02/14 02:24:49;;;;;;;3.67;2.05;;;;;;;13.03;39.33;99756.22;5011272;28;20572;-74
2022/02/14 02:27:17;;;;;;;5.30;2.05;;;;;;;13.01;39.16;99757.38;5013327;28;20061;-74
2022/02/14 02:29:44;;;;;;;4.68;2.08;;;;;;;12.99;39.24;99745.78;5016684;28;20128;-74
2022/02/14 02:32:12;;;;;;;4.05;2.40;;;;;;;12.98;39.28;99742.19;5013138;28;20053;-74
2022/02/14 02:34:41;;;;;;;4.50;2.42;;;;;;;12.98;39.01;99728.56;5011966;28;20082;-74
2022/02/14 02:37:10;;;;;;;5.07;2.72;;;;;;;12.96;39.44;99722.38;5012369;28;20136;-74
2022/02/14 02:39:38;;;;;;;4.57;2.33;;;;;;;12.92;39.31;99721.84;5011011;28;20049;-74
2022/02/14 02:42:06;;;;;;;4.78;2.20;;;;;;;12.95;39.37;99728.84;5012732;28;20089;-74
2022/02/14 02:44:33;;;;;;;4.57;2.22;;;;;;;12.93;39.13;99726.25;5011504;28;20138;-74
2022/02/14 02:47:02;;;;;;;3.38;1.90;;;;;;;12.93;39.43;99706.31;5012017;28;20050;-74
2022/02/14 02:49:29;;;;;;;4.28;2.30;;;;;;;12.90;39.48;99704.78;5011732;28;20457;-74
2022/02/14 02:51:56;;;;;;;3.72;2.10;;;;;;;12.91;39.39;99711.09;5012829;28;20129;-75
2022/02/14 02:54:24;;;;;;;5.68;2.35;;;;;;;12.90;39.32;99706.63;5010466;28;20133;-74
2022/02/14 02:56:52;;;;;;;5.22;2.65;;;;;;;12.91;39.62;99697.47;5011912;28;20136;-74
2022/02/14 02:59:20;;;;;;;4.47;2.17;;;;;;;12.89;39.57;99680.41;5010478;28;20108;-74
2022/02/14 03:01:47;;;;;;;3.50;2.05;;;;;;;12.87;39.38;99675.09;5012682;28;20085;-75
2022/02/14 03:04:16;;;;;;;5.57;2.40;;;;;;;12.89;39.36;99656.75;5013024;28;20057;-75
2022/02/14 03:06:45;;;;;;;4.38;2.10;;;;;;;12.86;39.57;99661.59;5000331;28;20393;-75
2022/02/14 03:09:15;;;;;;;4.18;2.20;;;;;;;12.88;39.62;99662.31;5010484;28;20085;-74
2022/02/14 03:11:43;;;;;;;4.25;2.20;;;;;;;12.88;39.61;99655.00;5011194;28;20132;-74
2022/02/14 03:14:10;;;;;;;4.25;2.33;;;;;;;12.86;39.71;99653.44;5009742;28;20520;-75
2022/02/14 03:16:37;;;;;;;4.50;2.50;;;;;;;12.86;39.38;99650.72;5015074;28;20132;-75
2022/02/14 03:19:04;;;;;;;4.50;2.25;;;;;;;12.85;39.66;99646.25;5012573;28;20565;-74
2022/02/14 03:21:31;;;;;;;4.13;2.00;;;;;;;12.85;39.63;99641.69;5011143;28;20053;-75
2022/02/14 03:23:57;;;;;;;4.35;2.60;;;;;;;12.85;39.54;99658.03;5004372;28;20149;-75
2022/02/14 03:26:24;;;;;;;5.10;2.22;;;;;;;12.85;39.91;99651.72;5010883;28;20096;-74
2022/02/14 03:28:53;;;;;;;6.15;2.30;;;;;;;12.87;39.41;99668.78;5010941;28;20596;-75
2022/02/14 03:31:20;;;;;;;5.45;2.20;;;;;;;12.86;39.45;99661.59;5015189;28;20093;-75
2022/02/14 03:33:48;;;;;;;4.43;2.25;;;;;;;12.88;39.90;99651.44;5011764;28;20073;-75
2022/02/14 03:36:16;;;;;;;4.45;2.40;;;;;;;12.89;39.40;99637.66;5010253;28;20057;-75
2022/02/14 03:38:43;;;;;;;3.72;2.35;;;;;;;12.89;39.80;99639.53;5011682;28;20078;-74
2022/02/14 03:41:10;;;;;;;4.05;2.00;;;;;;;12.89;39.76;99634.94;5010688;28;20053;-75
2022/02/14 03:43:37;;;;;;;4.10;2.30;;;;;;;12.89;39.75;99629.50;5011685;28;20115;-75
2022/02/14 03:46:04;;;;;;;4.85;2.20;;;;;;;12.91;39.91;99632.06;5009679;28;20061;-74
2022/02/14 03:48:31;;;;;;;6.00;2.22;;;;;;;12.89;39.91;99634.94;5011785;28;20058;-75
2022/02/14 03:51:00;;;;;;;4.70;2.42;;;;;;;12.89;39.60;99639.53;5004644;28;20494;-74
2022/02/14 03:53:27;;;;;;;4.22;1.90;;;;;;;12.89;39.73;99644.97;5011184;28;20049;-74
2022/02/14 03:55:54;;;;;;;4.38;2.15;;;;;;;12.89;39.68;99639.53;5009736;28;20122;-75
2022/02/14 03:58:20;;;;;;;3.88;2.00;;;;;;;12.90;39.98;99641.25;5012884;28;20132;-74
2022/02/14 04:00:47;;;;;;;5.20;2.10;;;;;;;12.91;39.92;99630.22;5000444;28;20141;-74
2022/02/14 04:03:14;;;;;;;3.47;2.00;;;;;;;12.91;39.76;99635.66;5018164;28;20065;-74
2022/02/14 04:05:40;;;;;;;3.40;2.00;;;;;;;12.92;39.87;99629.22;5017137;28;20616;-74
2022/02/14 04:08:07;;;;;;;4.72;2.30;;;;;;;12.95;40.09;99628.03;5011835;28;20049;-75
2022/02/14 04:10:34;;;;;;;5.97;2.47;;;;;;;12.95;39.84;99641.66;5010284;28;20509;-75
2022/02/14 04:13:00;;;;;;;3.60;1.75;;;;;;;12.96;39.74;99637.94;5010997;28;20053;-74
2022/02/14 04:15:27;;;;;;;3.97;1.95;;;;;;;12.98;39.96;99633.19;5009357;28;20061;-75
2022/02/14 04:17:56;;;;;;;4.82;1.80;;;;;;;13.00;39.83;99620.31;5011159;28;20052;-74
2022/02/14 04:20:23;;;;;;;3.53;1.80;;;;;;;13.01;39.88;99613.00;5009935;28;20478;-74
2022/02/14 04:22:50;;;;;;;4.00;2.10;;;;;;;13.02;39.81;99621.00;5011679;28;20057;-74
2022/02/14 04:25:17;;;;;;;4.53;1.80;;;;;;;13.03;39.87;99616.41;5019678;28;20409;-74
2022/02/14 04:27:43;;;;;;;4.68;1.90;;;;;;;13.03;40.15;99630.88;5011094;28;20104;-74
2022/02/14 04:30:12;;;;;;;4.05;1.77;;;;;;;13.06;39.95;99627.88;5009601;28;20041;-75
2022/02/14 04:32:39;;;;;;;5.22;1.92;;;;;;;13.06;39.94;99625.16;5010893;28;20517;-75
2022/02/14 04:35:06;;;;;;;5.47;2.22;;;;;;;13.07;39.88;99610.53;5008708;28;20064;-74
2022/02/14 04:37:33;;;;;;;3.70;2.10;;;;;;;13.08;40.01;99623.16;5010809;28;20081;-74
2022/02/14 04:39:59;;;;;;;3.63;1.88;;;;;;;13.09;40.23;99596.75;5008323;28;20134;-75
2022/02/14 04:42:27;;;;;;;3.80;1.90;;;;;;;13.10;40.12;99606.63;5010812;28;20116;-75
2022/02/14 04:44:56;;;;;;;4.80;2.10;;;;;;;13.12;40.18;99604.63;5008394;28;20050;-75
2022/02/14 04:47:22;;;;;;;3.70;1.70;;;;;;;13.14;39.91;99608.09;5010601;28;20057;-75
2022/02/14 04:49:49;;;;;;;3.45;1.60;;;;;;;13.14;40.09;99602.63;5009392;28;20733;-75
2022/02/14 04:52:16;;;;;;;4.28;1.85;;;;;;;13.15;40.37;99601.63;5011055;28;20083;-74
2022/02/14 04:54:44;;;;;;;3.92;1.73;;;;;;;13.16;40.07;99598.75;5008663;28;20425;-74
2022/02/14 04:57:10;;;;;;;3.47;1.55;;;;;;;13.17;40.13;99594.19;5013835;28;20120;-74
2022/02/14 04:59:37;;;;;;;4.40;2.00;;;;;;;13.19;40.16;99593.00;5009413;28;20085;-74
2022/02/14 05:02:03;;;;;;;4.68;1.80;;;;;;;13.20;40.40;99592.00;5010396;28;20050;-74
2022/02/14 05:04:30;;;;;;;4.07;2.17;;;;;;;13.21;40.26;99590.13;5007818;28;20159;-75
2022/02/14 05:06:57;;;;;;;4.22;2.00;;;;;;;13.22;40.32;99589.97;5009949;28;20053;-74
2022/02/14 05:09:23;;;;;;;4.22;1.83;;;;;;;13.24;40.25;99606.19;5009352;28;20092;-74
2022/02/14 05:11:50;;;;;;;3.83;1.70;;;;;;;13.25;40.20;99594.28;5010689;28;20042;-74
2022/02/14 05:14:16;;;;;;;3.35;1.58;;;;;;;13.27;40.25;99594.97;5008383;28;20077;-74
2022/02/14 05:16:43;;;;;;;3.35;1.73;;;;;;;13.28;40.03;99599.41;5009779;28;20084;-74
2022/02/14 05:19:10;;;;;;;3.40;1.65;;;;;;;13.31;40.48;99590.94;5009419;28;20093;-74
2022/02/14 05:21:37;;;;;;;3.58;1.88;;;;;;;13.31;40.19;99578.19;5009439;28;20077;-74
2022/02/14 05:24:09;;;;;;;3.60;1.80;;;;;;;13.33;39.99;99588.94;5009857;28;20165;-75
2022/02/14 05:26:36;;;;;;;3.47;1.80;;;;;;;13.32;40.06;99576.31;5009076;28;20566;-74
2022/02/14 05:29:02;;;;;;;5.32;1.60;;;;;;;13.31;40.25;99582.78;5009667;28;20081;-74
2022/02/14 05:31:29;;;;;;;3.95;1.90;;;;;;;13.32;39.86;99587.22;5009572;28;20077;-74
2022/02/14 05:33:56;;;;;;;4.47;1.67;;;;;;;13.29;39.95;99585.63;5010813;28;20049;-74
2022/02/14 05:36:23;;;;;;;4.18;1.70;;;;;;;13.30;40.16;99587.34;5010058;28;20054;-74
2022/02/14 05:38:49;;;;;;;3.47;1.73;;;;;;;13.33;39.98;99578.03;5012688;28;20549;-74
2022/02/14 05:41:16;;;;;;;4.45;1.52;;;;;;;13.32;40.08;99584.50;5012399;28;20096;-73
2022/02/14 05:43:43;;;;;;;4.30;1.65;;;;;;;13.34;40.47;99582.47;5013947;28;20089;-74
2022/02/14 05:46:13;;;;;;;3.15;1.60;;;;;;;13.35;40.33;99584.16;5013134;28;20041;-74
2022/02/14 05:48:46;;;;;;;3.53;2.25;;;;;;;13.38;40.35;99583.88;5013676;28;20481;-75
2022/02/14 05:51:13;;;;;;;3.20;1.70;;;;;;;13.34;40.43;99574.31;5013452;28;20078;-74
2022/02/14 05:53:40;;;;;;;2.45;1.33;;;;;;;13.37;40.33;99578.56;5013413;28;20103;-74
2022/02/14 05:56:07;;;;;;;4.65;1.95;;;;;;;13.39;40.38;99582.00;5002014;28;20136;-74
2022/02/14 05:58:44;;;;;;;3.03;1.45;;;;;;;13.42;40.15;99579.84;5012634;28;20046;-74
2022/02/14 06:01:11;;;;;;;3.38;1.55;;;;;;;13.41;40.11;99590.91;5012266;28;20069;-74
2022/02/14 06:03:38;;;;;;;2.95;1.63;;;;;;;13.42;40.41;99584.44;5013223;28;20485;-74
2022/02/14 06:06:04;;;;;;;3.38;1.63;;;;;;;13.43;40.35;99578.81;5011859;28;20112;-74
2022/02/14 06:08:31;;;;;;;3.25;1.70;;;;;;;13.44;40.57;99588.72;5013784;28;20108;-74
2022/02/14 06:10:58;;;;;;;3.45;1.67;;;;;;;13.44;40.39;99576.94;5011584;28;20058;-74
2022/02/14 06:13:24;;;;;;;3.50;1.70;;;;;;;13.44;40.10;99594.16;5013026;28;20517;-73
2022/02/14 06:15:51;;;;;;;4.13;1.80;;;;;;;13.45;40.45;99589.56;5011078;28;20108;-74
2022/02/14 06:18:17;;;;;;;2.92;1.70;;;;;;;13.45;40.24;99581.41;5013360;28;20096;-74
2022/02/14 06:20:44;;;;;;;3.83;1.65;;;;;;;13.46;40.42;99588.56;5011234;28;20073;-75
2022/02/14 06:23:11;;;;;;;3.45;1.60;;;;;;;13.46;40.35;99585.84;5003589;28;20054;-74
2022/02/14 06:25:38;;;;;;;2.88;1.70;;;;;;;13.46;40.61;99594.03;5011143;28;20574;-74
2022/02/14 06:28:05;;;;;;;2.85;1.70;;;;;;;13.46;40.28;99586.69;5004687;28;20050;-74
2022/02/14 06:30:32;;;;;;;3.80;1.75;;;;;;;13.47;40.63;99593.00;5013521;28;20453;-74
2022/02/14 06:33:00;;;;;;;3.80;1.50;;;;;;;13.46;40.65;99592.16;5012012;28;20046;-75
2022/02/14 06:35:26;;;;;;;3.80;1.50;;;;;;;13.46;40.65;99600.34;5009696;28;20057;-74
2022/02/14 06:37:53;;;;;;;2.63;1.60;;;;;;;13.46;40.49;99592.16;5012514;28;20050;-75
2022/02/14 06:40:22;;;;;;;3.78;1.45;;;;;;;13.48;40.34;99594.72;5024857;28;20115;-74
2022/02/14 06:42:52;;;;;;;4.25;1.95;;;;;;;13.48;40.60;99594.72;5005920;28;20061;-75
2022/02/14 06:45:19;;;;;;;3.00;1.70;;;;;;;13.47;40.77;99595.75;5008019;28;20077;-75
2022/02/14 06:47:51;;;;;;;3.55;1.60;;;;;;;13.47;40.63;99598.47;5011761;28;20056;-74
2022/02/14 06:50:18;;;;;;;2.58;1.40;;;;;;;13.48;40.55;99597.47;5004957;28;20065;-74
2022/02/14 06:52:45;;;;;;;3.78;1.85;;;;;;;13.47;40.50;99595.75;5011710;28;20385;-74
2022/02/14 06:55:13;;;;;;;4.82;2.05;;;;;;;13.46;40.44;99583.13;5008174;28;20065;-74
2022/02/14 06:57:39;;;;;;;3.30;1.90;;;;;;;13.46;40.89;99597.59;5011278;28;20112;-74
2022/02/14 07:00:10;;;;;;;3.90;1.70;;;;;;;13.48;40.76;99592.88;5007681;28;20856;-73
2022/02/14 07:02:37;;;;;;;5.38;1.77;;;;;;;13.48;40.83;99597.47;5009661;28;20054;-74
2022/02/14 07:05:04;;;;;;;3.40;1.80;;;;;;;13.49;41.13;99586.41;5009403;28;20062;-74
2022/02/14 07:07:31;;;;;;;3.28;1.60;;;;;;;13.49;40.89;99597.31;5013119;28;20539;-74
2022/02/14 07:09:58;;;;;;;3.92;1.83;;;;;;;13.51;41.02;99602.59;5010244;28;20112;-74
2022/02/14 07:12:25;;;;;;;3.72;1.52;;;;;;;13.51;40.82;99598.00;5009452;28;20117;-75
2022/02/14 07:14:52;;;;;;;3.40;1.50;;;;;;;13.52;41.01;99604.31;5009461;28;20049;-74
2022/02/14 07:17:19;;;;;;;4.30;1.80;;;;;;;13.53;40.91;99601.44;5016384;28;20119;-74
2022/02/14 07:19:46;;;;;;;3.45;1.48;;;;;;;13.54;41.04;99608.63;5009122;28;20085;-75
2022/02/14 07:22:12;;;;;;;2.85;1.48;;;;;;;13.57;41.19;99616.50;5012228;28;20124;-74
2022/02/14 07:24:39;;;;;;;3.63;1.35;;;;;;;13.58;41.20;99606.44;5009134;28;20066;-74
2022/02/14 07:27:06;;;;;;;3.42;1.40;;;;;;;13.60;41.16;99608.00;5013408;28;20073;-75
2022/02/14 07:29:32;;;;;;;3.25;1.30;;;;;;;13.61;41.49;99606.13;5009283;28;20510;-75
2022/02/14 07:32:00;;;;;;;2.03;1.10;;;;;;;13.65;41.15;99602.09;5011917;28;20049;-74
2022/02/14 07:34:27;;;;;;;3.05;1.33;;;;;;;13.66;41.23;99618.31;5010168;28;20060;-74
2022/02/14 07:36:54;;;;;;;2.72;1.20;;;;;;;13.69;41.27;99619.88;5011032;28;20096;-75
2022/02/14 07:39:20;;;;;;;3.40;1.20;;;;;;;13.70;41.48;99625.16;5011295;28;20072;-75
2022/02/14 07:41:48;;;;;;;2.28;1.05;;;;;;;13.72;41.63;99627.75;5013154;28;20107;-75
2022/02/14 07:44:15;;;;;;;2.97;1.13;;;;;;;13.76;41.76;99631.00;5017740;28;20980;-75
2022/02/14 07:46:42;;;;;;;1.75;1.10;;;;;;;13.78;41.69;99629.88;5010983;28;20121;-75
2022/02/14 07:49:08;;;;;;;3.63;1.30;;;;;;;13.82;41.87;99638.63;5010063;28;20050;-75
2022/02/14 07:51:35;;;;;;;2.55;1.10;;;;;;;13.83;41.60;99615.78;5018633;28;20089;-75
2022/02/14 07:54:02;;;;;;;3.28;1.10;;;;;;;13.86;41.80;99621.78;5011245;28;20089;-76
2022/02/14 07:56:28;;;;;;;2.55;1.10;;;;;;;13.90;41.61;99619.59;5008825;28;20379;-75
2022/02/14 07:58:58;;;;;;;1.83;1.13;;;;;;;13.91;41.87;99616.72;5009318;28;20108;-75
2022/02/14 08:01:25;;;;;;;3.13;1.10;;;;;;;13.94;41.78;99624.59;5010386;28;20042;-74
2022/02/14 08:03:52;;;;;;;3.20;1.00;;;;;;;13.97;41.80;99628.88;5010729;28;20057;-75
2022/02/14 08:06:37;;;;;;;2.55;1.10;;;;;;;13.99;41.87;99626.88;5018618;28;20060;-75
2022/02/14 08:09:05;;;;;;;2.40;1.30;;;;;;;14.03;41.83;99629.13;5015328;28;20128;-75
2022/02/14 08:11:32;;;;;;;2.25;1.20;;;;;;;14.05;42.03;99626.25;5009729;28;20041;-75
2022/02/14 08:13:59;;;;;;;1.42;1.00;;;;;;;14.08;42.01;99631.41;5011038;28;20534;-74
2022/02/14 08:16:26;;;;;;;2.25;1.05;;;;;;;14.10;42.05;99623.91;5008941;28;20076;-75
2022/02/14 08:18:53;;;;;;;2.58;1.15;;;;;;;14.13;42.03;99626.34;5010990;28;20622;-74
2022/02/14 08:21:20;;;;;;;2.08;1.10;;;;;;;14.16;41.95;99626.03;5010202;28;20133;-75
2022/02/14 08:23:46;;;;;;;2.35;1.02;;;;;;;14.18;41.87;99615.78;5011062;28;20096;-76
2022/02/14 08:26:13;;;;;;;2.30;1.08;;;;;;;14.20;41.89;99608.31;5015949;28;20133;-76
2022/02/14 08:28:39;;;;;;;1.88;1.05;;;;;;;14.22;42.47;99617.22;5012264;28;20698;-74
2022/02/14 08:31:06;;;;;;;2.95;1.00;;;;;;;14.28;42.04;99634.81;4999224;28;20077;-75
2022/02/14 08:33:33;;;;;;;1.92;0.98;;;;;;;14.29;42.20;99621.03;4990559;28;20046;-76
2022/02/14 08:35:59;;;;;;;2.35;1.10;;;;;;;14.33;42.12;99633.34;4988567;28;20101;-76
2022/02/14 08:38:26;;;;;;;3.42;1.02;;;;;;;14.37;42.04;99628.44;4991938;28;20077;-76
2022/02/14 08:40:52;;;;;;;2.00;1.10;;;;;;;14.37;42.53;99632.03;4990896;28;20150;-75
2022/02/14 08:43:19;;;;;;;1.23;1.00;;;;;;;14.43;42.69;99636.03;5008076;28;20545;-75
2022/02/14 08:46:02;;;;;;;3.20;1.13;;;;;;;14.45;42.25;99636.72;4977624;28;20674;-75
2022/02/14 08:48:30;;;;;;;1.33;0.98;;;;;;;14.49;42.62;99635.41;4989888;28;20576;-76
2022/02/14 08:50:56;;;;;;;1.73;1.02;;;;;;;14.53;42.48;99642.28;4989439;28;21119;-75
2022/02/14 08:53:24;;;;;;;2.33;1.27;;;;;;;14.56;42.77;99641.97;4978937;28;20089;-75
2022/02/14 08:55:51;;;;;;;3.15;1.25;;;;;;;14.61;42.68;99639.59;5002115;28;20057;-74
2022/02/14 08:58:21;;;;;;;2.53;1.00;;;;;;;14.62;42.74;99637.72;5010509;28;20052;-75
2022/02/14 09:00:50;;;;;;;3.13;1.23;;;;;;;14.67;42.58;99669.00;5008811;28;20073;-76
2022/02/14 09:03:17;;;;;;;1.38;1.00;;;;;;;14.69;43.00;99639.69;5005040;28;20050;-76
2022/02/14 09:05:44;;;;;;;2.58;1.10;;;;;;;14.73;42.86;99638.34;5007101;28;20058;-76
2022/02/14 09:08:10;;;;;;;2.13;0.80;;;;;;;14.77;42.85;99630.69;5010392;28;20042;-75
2022/02/14 09:10:37;;;;;;;1.40;0.80;;;;;;;14.82;42.96;99642.00;5012627;28;20054;-75
2022/02/14 09:13:07;;;;;;;2.67;1.10;;;;;;;14.84;42.99;99643.53;5014133;28;20057;-76
2022/02/14 09:15:35;;;;;;;1.83;1.00;;;;;;;14.87;43.04;99653.31;5011091;28;20052;-76
2022/02/14 09:18:02;;;;;;;2.20;0.82;;;;;;;14.91;43.12;99645.63;5014392;28;20454;-75
2022/02/14 09:20:29;;;;;;;1.92;1.02;;;;;;;14.95;42.81;99647.03;5015138;28;20062;-75
2022/02/14 09:22:56;;;;;;;2.25;0.90;;;;;;;14.99;42.83;99659.38;5014440;28;20125;-76
2022/02/14 09:25:24;;;;;;;2.22;0.95;;;;;;;15.01;42.98;99647.25;4999867;28;20493;-75
2022/02/14 09:27:50;;;;;;;2.28;1.00;;;;;;;15.04;42.91;99649.69;5013492;28;20405;-75
2022/02/14 09:30:17;;;;;;;1.85;1.10;;;;;;;15.07;42.74;99646.59;5013098;28;20092;-75
2022/02/14 09:32:44;;;;;;;1.95;0.90;;;;;;;15.09;42.75;99647.31;5015165;28;20077;-75
2022/02/14 09:35:10;;;;;;;2.08;1.10;;;;;;;15.13;43.10;99654.19;5013606;28;20137;-75
2022/02/14 09:37:37;;;;;;;0.80;0.63;;;;;;;15.16;42.65;99653.00;5014003;28;20073;-76
2022/02/14 09:40:05;;;;;;;1.70;0.82;;;;;;;15.21;42.85;99645.19;5006648;28;20081;-75
2022/02/14 09:42:56;;;;;;;1.38;0.90;;;;;;;15.23;42.99;99652.19;4995200;28;20046;-76
2022/02/14 09:45:24;;;;;;;2.77;1.00;;;;;;;15.25;42.72;99662.97;4989313;28;20054;-75
2022/02/14 09:48:02;;;;;;;2.05;1.13;;;;;;;15.32;42.76;99661.28;4992008;28;20364;-75
2022/02/14 09:50:31;;;;;;;1.88;0.90;;;;;;;15.32;42.88;99660.47;4991045;28;20497;-75
2022/02/14 09:52:59;;;;;;;1.98;1.00;;;;;;;15.33;42.79;99667.63;4986015;28;20038;-76
2022/02/14 09:55:26;;;;;;;2.30;1.13;;;;;;;15.36;42.78;99672.78;4992223;28;20116;-76
2022/02/14 09:57:53;;;;;;;2.28;0.95;;;;;;;15.38;42.95;99685.28;4992479;28;20100;-76
2022/02/14 10:00:20;;;;;;;2.88;1.10;;;;;;;15.40;42.82;99679.66;5003030;28;20061;-75
2022/02/14 10:02:46;;;;;;;2.45;1.20;;;;;;;15.43;43.07;99671.09;5013712;28;20078;-75
2022/02/14 10:05:19;;;;;;;1.52;0.80;;;;;;;15.47;42.72;99722.59;5011932;28;20058;-75
2022/02/14 10:07:47;;;;;;;1.35;0.77;;;;;;;15.45;42.81;99702.75;5011475;28;20133;-75
2022/02/14 10:10:19;;;;;;;1.20;0.70;;;;;;;15.50;43.23;99715.94;5019976;28;20129;-75
2022/02/14 10:12:49;;;;;;;1.33;0.70;;;;;;;15.47;43.29;99721.75;5014071;28;20045;-76
2022/02/14 10:15:18;;;;;;;1.48;0.70;;;;;;;15.45;43.29;99716.44;5012472;28;20056;-75
2022/02/14 10:17:50;;;;;;;1.95;0.75;;;;;;;15.45;43.32;99734.72;5010303;28;20156;-75
2022/02/14 10:20:23;;;;;;;1.77;0.70;;;;;;;15.43;43.44;99717.59;5010816;28;20050;-76
2022/02/14 10:22:51;;;;;;;;;;;;;;;15.19;43.36;99723.75;5012981;28;20038;-76
2022/02/14 10:25:33;;;;;;;1.23;0.70;;;;;;;15.40;43.75;99729.72;5010357;28;20381;-75
2022/02/14 10:28:21;;;;;;;1.67;0.60;;;;;;;15.39;43.56;99738.97;5013714;28;20137;-76
2022/02/14 10:31:02;;;;;;;1.08;0.70;;;;;;;15.49;43.18;99730.63;5023669;28;20050;-75
2022/02/14 10:33:55;;;;;;;1.55;0.70;;;;;;;15.46;43.29;99739.19;5016306;28;20148;-76
2022/02/14 10:36:30;;;;;;;1.00;0.60;;;;;;;15.48;43.27;99746.19;5011465;28;20161;-75
2022/02/14 10:39:13;;;;;;;2.67;0.90;;;;;;;15.52;43.09;99750.31;5011232;28;20108;-75
2022/02/14 10:41:41;;;;;;;2.05;0.82;;;;;;;15.54;43.10;99752.94;4993586;28;20077;-76
2022/02/14 10:45:07;;;;;;;5.63;0.90;;;;;;;15.59;42.87;99761.50;4985883;28;20042;-77
2022/02/14 10:47:15;;;;;;;;;;;;;;;15.38;43.29;99758.25;4991036;28;20051;-76
2022/02/14 10:49:43;;;;;;;3.60;0.90;;;;;;;15.58;42.57;99766.13;4979743;28;19925;-75
2022/02/14 10:52:12;;;;;;;1.30;0.70;;;;;;;15.67;42.47;99752.50;4986561;28;20039;-76
2022/02/14 10:54:41;;;;;;;1.05;0.70;;;;;;;15.70;42.24;99761.25;4990892;28;20505;-75
2022/02/14 10:57:27;;;;;;;3.17;0.60;;;;;;;15.72;42.19;99770.16;5013285;28;20136;-76
2022/02/14 10:59:56;;;;;;;1.00;0.60;;;;;;;15.71;42.33;99773.06;5005944;28;20500;-75
2022/02/14 11:02:22;;;;;;;1.52;0.80;;;;;;;15.73;41.97;99804.69;4983406;28;20141;-75
2022/02/14 11:04:50;;;;;;;1.88;0.63;;;;;;;15.77;41.59;99780.59;4987769;28;20156;-75
2022/02/14 11:07:19;;;;;;;9.25;1.17;;;;;;;15.79;41.88;99782.19;4991805;28;20049;-75
2022/02/14 11:09:51;;;;;;;1.42;0.60;;;;;;;15.82;41.66;99787.31;4994883;28;20052;-75
2022/02/14 11:12:21;;;;;;;0.95;0.68;;;;;;;15.83;41.17;99799.09;4993522;28;20076;-77
2022/02/14 11:14:54;;;;;;;2.25;0.68;;;;;;;15.82;40.76;99805.59;4989882;28;20141;-75
2022/02/14 11:17:26;;;;;;;1.42;0.70;;;;;;;15.83;41.19;99799.09;4993193;28;20125;-76
2022/02/14 11:19:55;;;;;;;1.50;0.63;;;;;;;15.78;41.13;99816.03;4988843;28;20057;-76
2022/02/14 11:22:25;;;;;;;0.73;0.50;;;;;;;15.81;40.96;99810.22;5003469;28;20093;-75
2022/02/14 11:25:05;;;;;;;1.75;0.77;;;;;;;15.81;40.85;99814.88;4989867;28;20514;-76
2022/02/14 11:27:36;;;;;;;1.75;0.55;;;;;;;15.77;40.70;99805.25;4993212;28;20097;-75
2022/02/14 11:30:08;;;;;;;1.80;0.50;;;;;;;15.74;41.00;99813.75;4995670;28;20058;-76
2022/02/14 11:32:40;;;;;;;1.27;0.90;;;;;;;15.71;41.21;99820.44;4984072;28;20047;-76
2022/02/14 11:35:19;;;;;;;1.67;0.80;;;;;;;15.73;40.75;99809.34;4986375;28;20058;-76
2022/02/14 11:37:51;;;;;;;2.00;0.50;;;;;;;15.71;40.84;99819.56;4994246;28;20077;-76
2022/02/14 11:40:40;;;;;;;0.55;0.55;;;;;;;15.71;40.95;99804.00;4994039;28;20137;-76